sensor_id;sensor_type;location;lat;lon;timestamp;P1;durP1;ratioP1;P2;durP2;ratioP2
57858;SDS011;49153;45.568;11.894;2022-08-21T00:02:18;5.13;;;2.50;;
57858;SDS011;49153;45.568;11.894;2022-08-21T00:08:48;2.80;;;2.47;;
57858;SDS011;49153;45.568;11.894;2022-08-21T00:22:28;5.20;;;2.30;;
57858;SDS011;49153;45.568;11.894;2022-08-21T00:26:00;3.45;;;2.47;;
57858;SDS011;49153;45.568;11.894;2022-08-21T00:28:49;2.85;;;2.42;;
57858;SDS011;49153;45.568;11.894;2022-08-21T00:31:39;2.97;;;2.20;;
57858;SDS011;49153;45.568;11.894;2022-08-21T00:41:14;3.58;;;2.30;;
57858;SDS011;49153;45.568;11.894;2022-08-21T00:44:47;3.67;;;2.47;;
57858;SDS011;49153;45.568;11.894;2022-08-21T00:48:23;4.20;;;2.63;;
57858;SDS011;49153;45.568;11.894;2022-08-21T00:51:32;2.72;;;2.42;;
57858;SDS011;49153;45.568;11.894;2022-08-21T00:54:39;4.30;;;2.38;;
57858;SDS011;49153;45.568;11.894;2022-08-21T00:57:44;5.38;;;2.78;;
57858;SDS011;49153;45.568;11.894;2022-08-21T01:01:17;2.15;;;1.95;;
57858;SDS011;49153;45.568;11.894;2022-08-21T01:04:03;2.78;;;2.47;;
57858;SDS011;49153;45.568;11.894;2022-08-21T01:06:47;4.30;;;2.58;;
57858;SDS011;49153;45.568;11.894;2022-08-21T01:09:17;2.70;;;2.42;;
57858;SDS011;49153;45.568;11.894;2022-08-21T01:11:45;3.17;;;2.70;;
57858;SDS011;49153;45.568;11.894;2022-08-21T01:14:15;3.70;;;2.78;;
57858;SDS011;49153;45.568;11.894;2022-08-21T01:16:46;3.13;;;2.78;;
57858;SDS011;49153;45.568;11.894;2022-08-21T01:19:17;4.18;;;2.55;;
57858;SDS011;49153;45.568;11.894;2022-08-21T01:21:49;3.08;;;2.53;;
57858;SDS011;49153;45.568;11.894;2022-08-21T01:28:12;3.88;;;2.78;;
57858;SDS011;49153;45.568;11.894;2022-08-21T01:31:00;3.20;;;2.78;;
57858;SDS011;49153;45.568;11.894;2022-08-21T01:36:17;3.67;;;2.70;;
57858;SDS011;49153;45.568;11.894;2022-08-21T01:38:59;2.85;;;2.58;;
57858;SDS011;49153;45.568;11.894;2022-08-21T01:42:11;4.30;;;2.75;;
57858;SDS011;49153;45.568;11.894;2022-08-21T01:45:11;4.35;;;2.63;;
57858;SDS011;49153;45.568;11.894;2022-08-21T01:48:36;3.03;;;2.50;;
57858;SDS011;49153;45.568;11.894;2022-08-21T01:51:24;5.63;;;2.72;;
57858;SDS011;49153;45.568;11.894;2022-08-21T01:54:31;3.35;;;2.22;;
57858;SDS011;49153;45.568;11.894;2022-08-21T01:57:20;3.10;;;2.35;;
57858;SDS011;49153;45.568;11.894;2022-08-21T02:02:48;3.67;;;2.40;;
57858;SDS011;49153;45.568;11.894;2022-08-21T02:05:40;3.30;;;2.33;;
57858;SDS011;49153;45.568;11.894;2022-08-21T02:08:46;3.85;;;2.30;;
57858;SDS011;49153;45.568;11.894;2022-08-21T02:12:12;2.40;;;2.10;;
57858;SDS011;49153;45.568;11.894;2022-08-21T02:22:13;5.40;;;2.40;;
57858;SDS011;49153;45.568;11.894;2022-08-21T02:31:49;3.05;;;2.35;;
57858;SDS011;49153;45.568;11.894;2022-08-21T02:34:22;3.28;;;2.40;;
57858;SDS011;49153;45.568;11.894;2022-08-21T02:37:11;2.37;;;2.17;;
57858;SDS011;49153;45.568;11.894;2022-08-21T02:46:43;2.75;;;2.33;;
57858;SDS011;49153;45.568;11.894;2022-08-21T02:59:15;4.10;;;2.85;;
57858;SDS011;49153;45.568;11.894;2022-08-21T03:05:44;4.10;;;2.25;;
57858;SDS011;49153;45.568;11.894;2022-08-21T03:09:19;2.92;;;2.20;;
57858;SDS011;49153;45.568;11.894;2022-08-21T03:12:18;2.65;;;2.20;;
57858;SDS011;49153;45.568;11.894;2022-08-21T03:15:11;2.60;;;2.25;;
57858;SDS011;49153;45.568;11.894;2022-08-21T03:18:18;3.92;;;2.60;;
57858;SDS011;49153;45.568;11.894;2022-08-21T03:21:29;6.30;;;2.67;;
57858;SDS011;49153;45.568;11.894;2022-08-21T03:27:48;4.97;;;2.95;;
57858;SDS011;49153;45.568;11.894;2022-08-21T03:31:21;4.47;;;3.13;;
57858;SDS011;49153;45.568;11.894;2022-08-21T03:34:56;3.70;;;2.83;;
57858;SDS011;49153;45.568;11.894;2022-08-21T03:38:21;4.28;;;3.13;;
57858;SDS011;49153;45.568;11.894;2022-08-21T03:44:15;4.75;;;2.97;;
57858;SDS011;49153;45.568;11.894;2022-08-21T03:47:27;3.38;;;2.90;;
57858;SDS011;49153;45.568;11.894;2022-08-21T03:54:17;6.53;;;3.13;;
57858;SDS011;49153;45.568;11.894;2022-08-21T03:57:17;3.08;;;2.70;;
57858;SDS011;49153;45.568;11.894;2022-08-21T04:00:43;3.83;;;3.17;;
57858;SDS011;49153;45.568;11.894;2022-08-21T04:04:08;3.67;;;3.17;;
57858;SDS011;49153;45.568;11.894;2022-08-21T04:10:56;3.80;;;2.75;;
57858;SDS011;49153;45.568;11.894;2022-08-21T04:14:16;4.38;;;3.10;;
57858;SDS011;49153;45.568;11.894;2022-08-21T04:17:30;3.67;;;3.05;;
57858;SDS011;49153;45.568;11.894;2022-08-21T04:26:38;5.13;;;3.38;;
57858;SDS011;49153;45.568;11.894;2022-08-21T04:29:31;4.13;;;3.30;;
57858;SDS011;49153;45.568;11.894;2022-08-21T04:36:16;3.85;;;3.08;;
57858;SDS011;49153;45.568;11.894;2022-08-21T04:43:10;4.47;;;3.10;;
57858;SDS011;49153;45.568;11.894;2022-08-21T04:46:23;5.67;;;2.85;;
57858;SDS011;49153;45.568;11.894;2022-08-21T04:52:49;4.20;;;3.20;;
57858;SDS011;49153;45.568;11.894;2022-08-21T04:58:49;5.70;;;3.88;;
57858;SDS011;49153;45.568;11.894;2022-08-21T05:12:32;4.47;;;3.17;;
57858;SDS011;49153;45.568;11.894;2022-08-21T05:15:46;6.22;;;3.75;;
57858;SDS011;49153;45.568;11.894;2022-08-21T05:19:15;3.75;;;3.22;;
57858;SDS011;49153;45.568;11.894;2022-08-21T05:22:46;4.25;;;3.22;;
57858;SDS011;49153;45.568;11.894;2022-08-21T05:26:18;7.28;;;3.30;;
57858;SDS011;49153;45.568;11.894;2022-08-21T05:29:07;5.00;;;3.08;;
57858;SDS011;49153;45.568;11.894;2022-08-21T05:32:22;5.18;;;3.38;;
57858;SDS011;49153;45.568;11.894;2022-08-21T05:38:15;4.28;;;3.42;;
57858;SDS011;49153;45.568;11.894;2022-08-21T05:41:48;4.22;;;3.33;;
57858;SDS011;49153;45.568;11.894;2022-08-21T05:45:14;5.25;;;3.13;;
57858;SDS011;49153;45.568;11.894;2022-08-21T05:48:23;6.03;;;2.97;;
57858;SDS011;49153;45.568;11.894;2022-08-21T05:51:54;4.45;;;2.75;;
57858;SDS011;49153;45.568;11.894;2022-08-21T05:55:08;4.88;;;2.65;;
57858;SDS011;49153;45.568;11.894;2022-08-21T05:58:46;3.72;;;2.67;;
57858;SDS011;49153;45.568;11.894;2022-08-21T06:02:28;3.03;;;2.10;;
57858;SDS011;49153;45.568;11.894;2022-08-21T06:05:39;3.28;;;2.20;;
57858;SDS011;49153;45.568;11.894;2022-08-21T06:08:43;5.00;;;2.13;;
57858;SDS011;49153;45.568;11.894;2022-08-21T06:11:54;2.78;;;1.88;;
57858;SDS011;49153;45.568;11.894;2022-08-21T06:15:22;2.88;;;2.00;;
57858;SDS011;49153;45.568;11.894;2022-08-21T06:19:03;2.25;;;1.98;;
57858;SDS011;49153;45.568;11.894;2022-08-21T06:22:32;2.25;;;1.90;;
57858;SDS011;49153;45.568;11.894;2022-08-21T06:25:58;2.80;;;1.73;;
57858;SDS011;49153;45.568;11.894;2022-08-21T06:29:24;2.88;;;1.88;;
57858;SDS011;49153;45.568;11.894;2022-08-21T06:32:44;3.05;;;1.90;;
57858;SDS011;49153;45.568;11.894;2022-08-21T06:38:43;3.22;;;2.17;;
57858;SDS011;49153;45.568;11.894;2022-08-21T06:42:16;2.55;;;1.80;;
57858;SDS011;49153;45.568;11.894;2022-08-21T06:45:26;3.47;;;1.90;;
57858;SDS011;49153;45.568;11.894;2022-08-21T06:52:20;4.20;;;1.65;;
57858;SDS011;49153;45.568;11.894;2022-08-21T06:55:28;1.73;;;1.58;;
57858;SDS011;49153;45.568;11.894;2022-08-21T06:58:37;3.03;;;1.58;;
57858;SDS011;49153;45.568;11.894;2022-08-21T07:04:46;1.38;;;1.25;;
57858;SDS011;49153;45.568;11.894;2022-08-21T07:08:14;2.75;;;1.30;;
57858;SDS011;49153;45.568;11.894;2022-08-21T07:10:40;4.07;;;1.40;;
57858;SDS011;49153;45.568;11.894;2022-08-21T07:13:05;2.17;;;1.45;;
57858;SDS011;49153;45.568;11.894;2022-08-21T07:15:31;2.25;;;1.40;;
57858;SDS011;49153;45.568;11.894;2022-08-21T07:17:57;2.78;;;1.60;;
57858;SDS011;49153;45.568;11.894;2022-08-21T07:20:23;2.38;;;1.40;;
57858;SDS011;49153;45.568;11.894;2022-08-21T07:22:49;2.88;;;1.60;;
57858;SDS011;49153;45.568;11.894;2022-08-21T07:25:14;2.47;;;1.73;;
57858;SDS011;49153;45.568;11.894;2022-08-21T07:27:40;2.30;;;1.50;;
57858;SDS011;49153;45.568;11.894;2022-08-21T07:30:05;2.67;;;1.60;;
57858;SDS011;49153;45.568;11.894;2022-08-21T07:32:31;5.28;;;1.50;;
57858;SDS011;49153;45.568;11.894;2022-08-21T07:34:57;1.35;;;0.90;;
57858;SDS011;49153;45.568;11.894;2022-08-21T07:37:22;1.35;;;1.25;;
57858;SDS011;49153;45.568;11.894;2022-08-21T07:39:47;2.65;;;1.60;;
57858;SDS011;49153;45.568;11.894;2022-08-21T07:42:14;1.90;;;1.08;;
57858;SDS011;49153;45.568;11.894;2022-08-21T07:44:40;1.73;;;1.00;;
57858;SDS011;49153;45.568;11.894;2022-08-21T07:47:06;1.85;;;1.25;;
57858;SDS011;49153;45.568;11.894;2022-08-21T07:49:31;1.70;;;1.20;;
57858;SDS011;49153;45.568;11.894;2022-08-21T07:51:57;1.67;;;1.20;;
57858;SDS011;49153;45.568;11.894;2022-08-21T07:54:23;1.50;;;1.30;;
57858;SDS011;49153;45.568;11.894;2022-08-21T07:56:48;2.05;;;1.40;;
57858;SDS011;49153;45.568;11.894;2022-08-21T07:59:14;2.33;;;1.42;;
57858;SDS011;49153;45.568;11.894;2022-08-21T08:01:39;1.92;;;1.40;;
57858;SDS011;49153;45.568;11.894;2022-08-21T08:04:05;3.13;;;1.80;;
57858;SDS011;49153;45.568;11.894;2022-08-21T08:06:33;2.25;;;1.20;;
57858;SDS011;49153;45.568;11.894;2022-08-21T08:08:59;2.55;;;1.70;;
57858;SDS011;49153;45.568;11.894;2022-08-21T08:11:26;1.40;;;1.30;;
57858;SDS011;49153;45.568;11.894;2022-08-21T08:13:52;2.58;;;1.40;;
57858;SDS011;49153;45.568;11.894;2022-08-21T08:16:17;4.05;;;1.50;;
57858;SDS011;49153;45.568;11.894;2022-08-21T08:18:44;2.00;;;1.70;;
57858;SDS011;49153;45.568;11.894;2022-08-21T08:21:11;2.78;;;1.73;;
57858;SDS011;49153;45.568;11.894;2022-08-21T08:23:37;3.58;;;1.70;;
57858;SDS011;49153;45.568;11.894;2022-08-21T08:26:03;2.85;;;1.58;;
57858;SDS011;49153;45.568;11.894;2022-08-21T08:28:29;3.53;;;1.67;;
57858;SDS011;49153;45.568;11.894;2022-08-21T08:30:56;3.55;;;1.80;;
57858;SDS011;49153;45.568;11.894;2022-08-21T08:33:22;3.40;;;1.65;;
57858;SDS011;49153;45.568;11.894;2022-08-21T08:35:48;3.25;;;1.70;;
57858;SDS011;49153;45.568;11.894;2022-08-21T08:38:15;3.58;;;1.70;;
57858;SDS011;49153;45.568;11.894;2022-08-21T08:43:18;2.42;;;1.50;;
57858;SDS011;49153;45.568;11.894;2022-08-21T08:45:45;2.83;;;1.50;;
57858;SDS011;49153;45.568;11.894;2022-08-21T08:48:18;2.92;;;1.50;;
57858;SDS011;49153;45.568;11.894;2022-08-21T08:50:59;2.67;;;1.60;;
57858;SDS011;49153;45.568;11.894;2022-08-21T08:53:28;1.98;;;1.30;;
57858;SDS011;49153;45.568;11.894;2022-08-21T08:55:58;2.80;;;1.30;;
57858;SDS011;49153;45.568;11.894;2022-08-21T08:58:33;2.22;;;1.10;;
57858;SDS011;49153;45.568;11.894;2022-08-21T09:01:05;3.47;;;1.42;;
57858;SDS011;49153;45.568;11.894;2022-08-21T09:03:35;1.73;;;1.30;;
57858;SDS011;49153;45.568;11.894;2022-08-21T09:06:07;2.05;;;1.40;;
57858;SDS011;49153;45.568;11.894;2022-08-21T09:08:49;3.45;;;1.80;;
57858;SDS011;49153;45.568;11.894;2022-08-21T09:11:26;2.78;;;1.42;;
57858;SDS011;49153;45.568;11.894;2022-08-21T09:16:48;2.47;;;1.55;;
57858;SDS011;49153;45.568;11.894;2022-08-21T09:19:36;2.85;;;1.60;;
57858;SDS011;49153;45.568;11.894;2022-08-21T09:27:33;2.03;;;1.45;;
57858;SDS011;49153;45.568;11.894;2022-08-21T09:29:58;2.30;;;1.23;;
57858;SDS011;49153;45.568;11.894;2022-08-21T09:32:27;2.22;;;1.50;;
57858;SDS011;49153;45.568;11.894;2022-08-21T09:37:31;1.50;;;1.30;;
57858;SDS011;49153;45.568;11.894;2022-08-21T09:39:59;2.38;;;1.25;;
57858;SDS011;49153;45.568;11.894;2022-08-21T09:42:30;1.80;;;1.25;;
57858;SDS011;49153;45.568;11.894;2022-08-21T09:45:08;2.13;;;1.40;;
57858;SDS011;49153;45.568;11.894;2022-08-21T09:47:36;1.30;;;1.20;;
57858;SDS011;49153;45.568;11.894;2022-08-21T09:50:12;2.28;;;1.50;;
57858;SDS011;49153;45.568;11.894;2022-08-21T09:52:54;1.67;;;1.30;;
57858;SDS011;49153;45.568;11.894;2022-08-21T09:55:30;3.47;;;1.40;;
57858;SDS011;49153;45.568;11.894;2022-08-21T09:58:15;1.95;;;1.30;;
57858;SDS011;49153;45.568;11.894;2022-08-21T10:00:42;2.30;;;1.40;;
57858;SDS011;49153;45.568;11.894;2022-08-21T10:03:13;1.75;;;1.30;;
57858;SDS011;49153;45.568;11.894;2022-08-21T10:08:31;1.77;;;1.20;;
57858;SDS011;49153;45.568;11.894;2022-08-21T10:11:01;2.13;;;1.30;;
57858;SDS011;49153;45.568;11.894;2022-08-21T10:13:40;1.88;;;1.20;;
57858;SDS011;49153;45.568;11.894;2022-08-21T10:31:57;2.80;;;1.50;;
57858;SDS011;49153;45.568;11.894;2022-08-21T10:42:53;1.77;;;1.13;;
57858;SDS011;49153;45.568;11.894;2022-08-21T10:48:07;2.05;;;1.20;;
57858;SDS011;49153;45.568;11.894;2022-08-21T10:50:50;1.23;;;1.10;;
57858;SDS011;49153;45.568;11.894;2022-08-21T10:56:07;2.47;;;1.60;;
57858;SDS011;49153;45.568;11.894;2022-08-21T11:01:46;2.40;;;1.30;;
57858;SDS011;49153;45.568;11.894;2022-08-21T11:04:16;4.95;;;2.58;;
57858;SDS011;49153;45.568;11.894;2022-08-21T11:07:02;9.05;;;5.03;;
57858;SDS011;49153;45.568;11.894;2022-08-21T11:09:34;7.78;;;5.00;;
57858;SDS011;49153;45.568;11.894;2022-08-21T11:17:30;3.47;;;2.20;;
57858;SDS011;49153;45.568;11.894;2022-08-21T11:20:05;2.92;;;1.70;;
57858;SDS011;49153;45.568;11.894;2022-08-21T11:22:45;2.30;;;1.77;;
57858;SDS011;49153;45.568;11.894;2022-08-21T11:25:30;1.73;;;1.50;;
57858;SDS011;49153;45.568;11.894;2022-08-21T11:28:01;1.38;;;1.27;;
57858;SDS011;49153;45.568;11.894;2022-08-21T11:30:45;3.55;;;1.40;;
57858;SDS011;49153;45.568;11.894;2022-08-21T11:36:15;2.95;;;1.40;;
57858;SDS011;49153;45.568;11.894;2022-08-21T11:38:46;1.10;;;1.00;;
57858;SDS011;49153;45.568;11.894;2022-08-21T11:41:36;1.15;;;1.05;;
57858;SDS011;49153;45.568;11.894;2022-08-21T11:57:23;1.85;;;1.00;;
57858;SDS011;49153;45.568;11.894;2022-08-21T12:02:19;1.45;;;0.90;;
57858;SDS011;49153;45.568;11.894;2022-08-21T12:04:52;1.40;;;1.00;;
57858;SDS011;49153;45.568;11.894;2022-08-21T12:07:31;1.88;;;1.20;;
57858;SDS011;49153;45.568;11.894;2022-08-21T12:10:04;1.83;;;1.10;;
57858;SDS011;49153;45.568;11.894;2022-08-21T12:12:36;1.98;;;1.05;;
57858;SDS011;49153;45.568;11.894;2022-08-21T12:15:25;1.10;;;0.93;;
57858;SDS011;49153;45.568;11.894;2022-08-21T12:20:23;1.38;;;0.70;;
57858;SDS011;49153;45.568;11.894;2022-08-21T12:23:01;1.08;;;0.82;;
57858;SDS011;49153;45.568;11.894;2022-08-21T12:29:02;1.48;;;0.75;;
57858;SDS011;49153;45.568;11.894;2022-08-21T12:31:47;1.55;;;0.80;;
57858;SDS011;49153;45.568;11.894;2022-08-21T12:34:15;1.95;;;0.93;;
57858;SDS011;49153;45.568;11.894;2022-08-21T12:36:44;2.42;;;1.00;;
57858;SDS011;49153;45.568;11.894;2022-08-21T12:39:15;0.82;;;0.60;;
57858;SDS011;49153;45.568;11.894;2022-08-21T12:41:48;1.67;;;0.88;;
57858;SDS011;49153;45.568;11.894;2022-08-21T12:44:21;1.10;;;0.70;;
57858;SDS011;49153;45.568;11.894;2022-08-21T12:47:00;1.17;;;0.80;;
57858;SDS011;49153;45.568;11.894;2022-08-21T12:49:35;1.33;;;0.88;;
57858;SDS011;49153;45.568;11.894;2022-08-21T12:52:22;1.33;;;0.70;;
57858;SDS011;49153;45.568;11.894;2022-08-21T12:54:52;3.13;;;0.90;;
57858;SDS011;49153;45.568;11.894;2022-08-21T12:57:23;1.48;;;1.00;;
57858;SDS011;49153;45.568;11.894;2022-08-21T12:59:54;1.52;;;1.00;;
57858;SDS011;49153;45.568;11.894;2022-08-21T13:02:26;1.55;;;1.10;;
57858;SDS011;49153;45.568;11.894;2022-08-21T13:04:55;1.33;;;0.90;;
57858;SDS011;49153;45.568;11.894;2022-08-21T13:07:24;1.52;;;1.00;;
57858;SDS011;49153;45.568;11.894;2022-08-21T13:09:54;3.03;;;1.00;;
57858;SDS011;49153;45.568;11.894;2022-08-21T13:14:49;0.75;;;0.70;;
57858;SDS011;49153;45.568;11.894;2022-08-21T13:17:17;1.58;;;0.80;;
57858;SDS011;49153;45.568;11.894;2022-08-21T13:19:54;2.47;;;0.90;;
57858;SDS011;49153;45.568;11.894;2022-08-21T13:22:21;1.15;;;0.98;;
57858;SDS011;49153;45.568;11.894;2022-08-21T13:24:48;2.13;;;1.00;;
57858;SDS011;49153;45.568;11.894;2022-08-21T13:27:17;1.35;;;1.00;;
57858;SDS011;49153;45.568;11.894;2022-08-21T13:30:03;1.30;;;0.90;;
57858;SDS011;49153;45.568;11.894;2022-08-21T13:32:42;1.85;;;0.90;;
57858;SDS011;49153;45.568;11.894;2022-08-21T13:35:11;1.45;;;0.93;;
57858;SDS011;49153;45.568;11.894;2022-08-21T13:37:40;1.10;;;1.00;;
57858;SDS011;49153;45.568;11.894;2022-08-21T13:40:12;1.33;;;1.00;;
57858;SDS011;49153;45.568;11.894;2022-08-21T13:42:42;1.25;;;0.90;;
57858;SDS011;49153;45.568;11.894;2022-08-21T13:45:16;3.17;;;1.05;;
57858;SDS011;49153;45.568;11.894;2022-08-21T13:47:55;1.27;;;0.82;;
57858;SDS011;49153;45.568;11.894;2022-08-21T13:50:22;1.73;;;0.98;;
57858;SDS011;49153;45.568;11.894;2022-08-21T13:52:54;1.48;;;0.80;;
57858;SDS011;49153;45.568;11.894;2022-08-21T13:55:39;1.33;;;0.90;;
57858;SDS011;49153;45.568;11.894;2022-08-21T13:58:06;1.55;;;0.90;;
57858;SDS011;49153;45.568;11.894;2022-08-21T14:00:34;1.33;;;0.90;;
57858;SDS011;49153;45.568;11.894;2022-08-21T14:03:10;2.22;;;1.20;;
57858;SDS011;49153;45.568;11.894;2022-08-21T14:05:47;1.33;;;1.00;;
57858;SDS011;49153;45.568;11.894;2022-08-21T14:08:32;1.13;;;0.90;;
57858;SDS011;49153;45.568;11.894;2022-08-21T14:11:02;1.15;;;1.00;;
57858;SDS011;49153;45.568;11.894;2022-08-21T14:13:40;1.77;;;0.95;;
57858;SDS011;49153;45.568;11.894;2022-08-21T14:16:13;2.20;;;1.00;;
57858;SDS011;49153;45.568;11.894;2022-08-21T14:18:51;2.20;;;1.00;;
57858;SDS011;49153;45.568;11.894;2022-08-21T14:21:31;1.55;;;1.00;;
57858;SDS011;49153;45.568;11.894;2022-08-21T14:24:12;1.70;;;0.85;;
57858;SDS011;49153;45.568;11.894;2022-08-21T14:26:52;1.30;;;1.10;;
57858;SDS011;49153;45.568;11.894;2022-08-21T14:29:26;1.50;;;1.03;;
57858;SDS011;49153;45.568;11.894;2022-08-21T14:31:56;1.63;;;1.00;;
57858;SDS011;49153;45.568;11.894;2022-08-21T14:34:26;1.50;;;1.10;;
57858;SDS011;49153;45.568;11.894;2022-08-21T14:36:54;1.48;;;0.90;;
57858;SDS011;49153;45.568;11.894;2022-08-21T14:39:20;1.25;;;0.95;;
57858;SDS011;49153;45.568;11.894;2022-08-21T14:41:46;1.60;;;1.30;;
57858;SDS011;49153;45.568;11.894;2022-08-21T14:44:13;1.58;;;1.20;;
57858;SDS011;49153;45.568;11.894;2022-08-21T14:46:39;1.63;;;1.10;;
57858;SDS011;49153;45.568;11.894;2022-08-21T14:49:05;1.83;;;1.17;;
57858;SDS011;49153;45.568;11.894;2022-08-21T14:51:30;2.35;;;1.10;;
57858;SDS011;49153;45.568;11.894;2022-08-21T14:53:56;1.90;;;0.85;;
57858;SDS011;49153;45.568;11.894;2022-08-21T14:56:21;2.50;;;1.15;;
57858;SDS011;49153;45.568;11.894;2022-08-21T14:58:48;3.17;;;1.23;;
57858;SDS011;49153;45.568;11.894;2022-08-21T15:01:15;4.85;;;1.30;;
57858;SDS011;49153;45.568;11.894;2022-08-21T15:03:43;1.95;;;1.13;;
57858;SDS011;49153;45.568;11.894;2022-08-21T15:06:09;2.88;;;1.20;;
57858;SDS011;49153;45.568;11.894;2022-08-21T15:08:35;2.80;;;1.05;;
57858;SDS011;49153;45.568;11.894;2022-08-21T15:11:02;3.13;;;1.15;;
57858;SDS011;49153;45.568;11.894;2022-08-21T15:13:28;1.95;;;1.25;;
57858;SDS011;49153;45.568;11.894;2022-08-21T15:15:55;1.75;;;1.20;;
57858;SDS011;49153;45.568;11.894;2022-08-21T15:18:22;2.13;;;1.02;;
57858;SDS011;49153;45.568;11.894;2022-08-21T15:20:52;1.95;;;1.15;;
57858;SDS011;49153;45.568;11.894;2022-08-21T15:23:17;1.42;;;1.10;;
57858;SDS011;49153;45.568;11.894;2022-08-21T15:25:44;2.10;;;1.30;;
57858;SDS011;49153;45.568;11.894;2022-08-21T15:28:11;1.48;;;1.15;;
57858;SDS011;49153;45.568;11.894;2022-08-21T15:30:38;2.17;;;1.00;;
57858;SDS011;49153;45.568;11.894;2022-08-21T15:33:05;1.50;;;1.20;;
57858;SDS011;49153;45.568;11.894;2022-08-21T15:35:32;3.00;;;1.08;;
57858;SDS011;49153;45.568;11.894;2022-08-21T15:37:57;1.27;;;0.80;;
57858;SDS011;49153;45.568;11.894;2022-08-21T15:40:23;1.50;;;1.00;;
57858;SDS011;49153;45.568;11.894;2022-08-21T15:42:56;1.15;;;1.00;;
57858;SDS011;49153;45.568;11.894;2022-08-21T15:45:25;1.85;;;1.13;;
57858;SDS011;49153;45.568;11.894;2022-08-21T15:47:51;3.42;;;1.20;;
57858;SDS011;49153;45.568;11.894;2022-08-21T15:50:17;2.05;;;1.00;;
57858;SDS011;49153;45.568;11.894;2022-08-21T15:52:42;2.90;;;1.10;;
57858;SDS011;49153;45.568;11.894;2022-08-21T15:55:08;1.90;;;1.05;;
57858;SDS011;49153;45.568;11.894;2022-08-21T15:57:35;3.75;;;1.20;;
57858;SDS011;49153;45.568;11.894;2022-08-21T16:00:15;2.90;;;1.10;;
57858;SDS011;49153;45.568;11.894;2022-08-21T16:02:44;3.25;;;1.08;;
57858;SDS011;49153;45.568;11.894;2022-08-21T16:05:12;1.10;;;0.80;;
57858;SDS011;49153;45.568;11.894;2022-08-21T16:07:41;1.77;;;1.00;;
57858;SDS011;49153;45.568;11.894;2022-08-21T16:10:07;2.05;;;1.20;;
57858;SDS011;49153;45.568;11.894;2022-08-21T16:12:36;2.13;;;0.88;;
57858;SDS011;49153;45.568;11.894;2022-08-21T16:15:06;2.08;;;0.93;;
57858;SDS011;49153;45.568;11.894;2022-08-21T16:17:34;2.70;;;1.05;;
57858;SDS011;49153;45.568;11.894;2022-08-21T16:20:03;1.48;;;1.00;;
57858;SDS011;49153;45.568;11.894;2022-08-21T16:22:30;2.60;;;1.13;;
57858;SDS011;49153;45.568;11.894;2022-08-21T16:24:56;1.88;;;0.90;;
57858;SDS011;49153;45.568;11.894;2022-08-21T16:27:22;2.20;;;1.10;;
57858;SDS011;49153;45.568;11.894;2022-08-21T16:29:47;1.80;;;1.08;;
57858;SDS011;49153;45.568;11.894;2022-08-21T16:32:14;1.58;;;1.00;;
57858;SDS011;49153;45.568;11.894;2022-08-21T16:34:44;7.68;;;1.02;;
57858;SDS011;49153;45.568;11.894;2022-08-21T16:37:12;1.85;;;0.90;;
57858;SDS011;49153;45.568;11.894;2022-08-21T16:39:41;1.75;;;0.90;;
57858;SDS011;49153;45.568;11.894;2022-08-21T16:42:08;3.78;;;1.00;;
57858;SDS011;49153;45.568;11.894;2022-08-21T16:47:03;2.85;;;1.20;;
57858;SDS011;49153;45.568;11.894;2022-08-21T16:49:28;3.72;;;1.10;;
57858;SDS011;49153;45.568;11.894;2022-08-21T16:51:54;1.90;;;1.10;;
57858;SDS011;49153;45.568;11.894;2022-08-21T16:54:19;1.42;;;1.00;;
57858;SDS011;49153;45.568;11.894;2022-08-21T16:56:44;3.70;;;1.27;;
57858;SDS011;49153;45.568;11.894;2022-08-21T16:59:10;1.90;;;1.23;;
57858;SDS011;49153;45.568;11.894;2022-08-21T17:01:37;2.83;;;1.20;;
57858;SDS011;49153;45.568;11.894;2022-08-21T17:04:03;2.92;;;1.20;;
57858;SDS011;49153;45.568;11.894;2022-08-21T17:06:30;3.20;;;1.23;;
57858;SDS011;49153;45.568;11.894;2022-08-21T17:08:57;2.05;;;1.10;;
57858;SDS011;49153;45.568;11.894;2022-08-21T17:11:30;4.05;;;1.00;;
57858;SDS011;49153;45.568;11.894;2022-08-21T17:14:08;2.97;;;1.30;;
57858;SDS011;49153;45.568;11.894;2022-08-21T17:16:37;2.05;;;1.13;;
57858;SDS011;49153;45.568;11.894;2022-08-21T17:19:04;3.63;;;1.10;;
57858;SDS011;49153;45.568;11.894;2022-08-21T17:21:30;1.92;;;0.90;;
57858;SDS011;49153;45.568;11.894;2022-08-21T17:23:56;2.38;;;1.00;;
57858;SDS011;49153;45.568;11.894;2022-08-21T17:26:22;2.28;;;1.15;;
57858;SDS011;49153;45.568;11.894;2022-08-21T17:28:48;2.47;;;1.20;;
57858;SDS011;49153;45.568;11.894;2022-08-21T17:31:13;2.25;;;1.30;;
57858;SDS011;49153;45.568;11.894;2022-08-21T17:33:41;2.70;;;1.27;;
57858;SDS011;49153;45.568;11.894;2022-08-21T17:36:14;3.05;;;1.35;;
57858;SDS011;49153;45.568;11.894;2022-08-21T17:38:42;3.10;;;1.30;;
57858;SDS011;49153;45.568;11.894;2022-08-21T17:41:07;3.35;;;1.33;;
57858;SDS011;49153;45.568;11.894;2022-08-21T17:43:33;3.30;;;1.20;;
57858;SDS011;49153;45.568;11.894;2022-08-21T17:45:59;2.28;;;1.17;;
57858;SDS011;49153;45.568;11.894;2022-08-21T17:48:24;1.77;;;1.20;;
57858;SDS011;49153;45.568;11.894;2022-08-21T17:50:50;3.53;;;1.40;;
57858;SDS011;49153;45.568;11.894;2022-08-21T17:53:15;2.08;;;1.35;;
57858;SDS011;49153;45.568;11.894;2022-08-21T17:55:41;1.88;;;1.30;;
57858;SDS011;49153;45.568;11.894;2022-08-21T17:58:07;3.30;;;1.60;;
57858;SDS011;49153;45.568;11.894;2022-08-21T18:00:37;3.85;;;1.67;;
57858;SDS011;49153;45.568;11.894;2022-08-21T18:03:07;2.47;;;1.48;;
57858;SDS011;49153;45.568;11.894;2022-08-21T18:05:39;4.70;;;1.63;;
57858;SDS011;49153;45.568;11.894;2022-08-21T18:08:08;2.42;;;1.40;;
57858;SDS011;49153;45.568;11.894;2022-08-21T18:10:34;2.47;;;1.30;;
57858;SDS011;49153;45.568;11.894;2022-08-21T18:13:02;2.75;;;1.70;;
57858;SDS011;49153;45.568;11.894;2022-08-21T18:15:29;2.80;;;1.58;;
57858;SDS011;49153;45.568;11.894;2022-08-21T18:17:55;2.22;;;1.40;;
57858;SDS011;49153;45.568;11.894;2022-08-21T18:20:21;4.53;;;1.50;;
57858;SDS011;49153;45.568;11.894;2022-08-21T18:22:47;1.92;;;1.50;;
57858;SDS011;49153;45.568;11.894;2022-08-21T18:25:13;2.92;;;1.70;;
57858;SDS011;49153;45.568;11.894;2022-08-21T18:27:40;2.92;;;1.75;;
57858;SDS011;49153;45.568;11.894;2022-08-21T18:30:10;2.33;;;1.60;;
57858;SDS011;49153;45.568;11.894;2022-08-21T18:32:38;2.22;;;1.55;;
57858;SDS011;49153;45.568;11.894;2022-08-21T18:35:05;2.28;;;1.52;;
57858;SDS011;49153;45.568;11.894;2022-08-21T18:37:31;3.50;;;1.48;;
57858;SDS011;49153;45.568;11.894;2022-08-21T18:39:56;4.20;;;1.65;;
57858;SDS011;49153;45.568;11.894;2022-08-21T18:42:22;1.70;;;1.50;;
57858;SDS011;49153;45.568;11.894;2022-08-21T18:44:48;3.35;;;1.48;;
57858;SDS011;49153;45.568;11.894;2022-08-21T18:47:26;2.90;;;1.60;;
57858;SDS011;49153;45.568;11.894;2022-08-21T18:49:57;5.47;;;1.70;;
57858;SDS011;49153;45.568;11.894;2022-08-21T18:52:23;1.90;;;1.45;;
57858;SDS011;49153;45.568;11.894;2022-08-21T18:54:48;2.83;;;1.85;;
57858;SDS011;49153;45.568;11.894;2022-08-21T18:57:13;2.50;;;1.85;;
57858;SDS011;49153;45.568;11.894;2022-08-21T18:59:39;3.28;;;1.58;;
57858;SDS011;49153;45.568;11.894;2022-08-21T19:02:07;4.47;;;2.10;;
57858;SDS011;49153;45.568;11.894;2022-08-21T19:04:33;3.33;;;2.20;;
57858;SDS011;49153;45.568;11.894;2022-08-21T19:06:59;4.32;;;2.10;;
57858;SDS011;49153;45.568;11.894;2022-08-21T19:09:25;3.10;;;2.25;;
57858;SDS011;49153;45.568;11.894;2022-08-21T19:11:50;3.90;;;2.28;;
57858;SDS011;49153;45.568;11.894;2022-08-21T19:14:16;4.05;;;2.15;;